createdAt,value
2023-02-22T00:02:11.588Z,7.13
2023-02-22T00:04:39.870Z,6.68
2023-02-22T00:07:08.365Z,6.93
2023-02-22T00:09:36.009Z,7.18
2023-02-22T00:12:03.331Z,7.45
2023-02-22T00:14:30.578Z,7.43
2023-02-22T00:16:59.912Z,7.30
2023-02-22T00:19:30.386Z,7.13
2023-02-22T00:21:58.188Z,7.25
2023-02-22T00:24:26.002Z,8.70
2023-02-22T00:26:57.286Z,8.48
2023-02-22T00:29:25.689Z,7.68
2023-02-22T00:31:53.160Z,7.75
2023-02-22T00:34:20.636Z,7.25
2023-02-22T00:36:50.967Z,7.55
2023-02-22T00:39:18.667Z,7.53
2023-02-22T00:41:46.121Z,8.25
2023-02-22T00:44:13.502Z,8.30
2023-02-22T00:46:40.823Z,8.20
2023-02-22T00:49:08.184Z,8.07
2023-02-22T00:51:35.422Z,7.47
2023-02-22T00:54:03.149Z,8.02
2023-02-22T00:56:30.444Z,8.15
2023-02-22T00:58:57.816Z,8.88
2023-02-22T01:01:25.152Z,7.88
2023-02-22T01:03:52.665Z,8.40
2023-02-22T01:06:21.224Z,9.07
2023-02-22T01:08:49.418Z,7.65
2023-02-22T01:11:18.676Z,8.98
2023-02-22T01:13:46.078Z,8.50
2023-02-22T01:16:14.014Z,8.38
2023-02-22T01:18:41.479Z,8.18
2023-02-22T01:21:09.013Z,9.10
2023-02-22T01:23:36.677Z,8.10
2023-02-22T01:26:06.174Z,8.25
2023-02-22T01:28:34.457Z,8.50
2023-02-22T01:31:03.432Z,8.07
2023-02-22T01:33:31.571Z,9.35
2023-02-22T01:36:00.286Z,8.45
2023-02-22T01:38:28.254Z,8.52
2023-02-22T01:40:55.673Z,8.27
2023-02-22T01:43:33.406Z,7.65
2023-02-22T01:46:06.191Z,8.23
2023-02-22T01:48:45.490Z,8.15
2023-02-22T01:51:22.424Z,7.10
2023-02-22T01:53:55.798Z,8.02
2023-02-22T01:56:25.772Z,8.25
2023-02-22T01:59:01.758Z,7.85
2023-02-22T02:01:30.082Z,7.15
2023-02-22T02:04:01.262Z,7.90
2023-02-22T02:06:33.711Z,8.07
2023-02-22T02:09:23.349Z,7.53
2023-02-22T02:11:51.176Z,8.23
2023-02-22T02:14:21.736Z,7.72
2023-02-22T02:16:51.556Z,7.28
2023-02-22T02:19:37.804Z,7.03
2023-02-22T02:22:14.283Z,6.25
2023-02-22T02:24:50.865Z,6.82
2023-02-22T02:27:31.093Z,7.38
2023-02-22T02:30:04.321Z,7.00
2023-02-22T02:32:52.157Z,6.38
2023-02-22T02:35:31.988Z,6.50
2023-02-22T02:38:23.004Z,6.53
2023-02-22T02:41:17.043Z,6.63
2023-02-22T02:44:02.548Z,7.03
2023-02-22T02:46:32.520Z,6.57
2023-02-22T02:49:11.852Z,6.00
2023-02-22T02:51:48.408Z,6.55
2023-02-22T02:54:16.253Z,5.97
2023-02-22T02:56:43.871Z,6.25
2023-02-22T02:59:43.898Z,5.28
2023-02-22T03:02:44.652Z,5.70
2023-02-22T03:05:32.268Z,5.82
2023-02-22T03:08:14.065Z,5.85
2023-02-22T03:10:57.013Z,6.45
2023-02-22T03:16:20.925Z,5.25
2023-02-22T03:19:21.296Z,5.95
2023-02-22T03:22:15.441Z,5.57
2023-02-22T03:25:10.212Z,5.40
2023-02-22T03:27:50.813Z,5.65
2023-02-22T03:30:24.232Z,5.50
2023-02-22T03:32:57.965Z,6.47
2023-02-22T03:35:31.387Z,6.88
2023-02-22T03:38:02.491Z,5.88
2023-02-22T03:40:35.021Z,5.47
2023-02-22T03:45:35.022Z,5.90
2023-02-22T03:48:14.985Z,6.35
2023-02-22T03:50:42.386Z,6.03
2023-02-22T03:53:10.720Z,6.60
2023-02-22T03:55:41.372Z,6.55
2023-02-22T03:58:14.119Z,6.40
2023-02-22T04:00:44.736Z,5.55
2023-02-22T04:03:12.450Z,6.10
2023-02-22T04:05:40.116Z,6.13
2023-02-22T04:08:07.674Z,6.47
2023-02-22T04:10:37.733Z,6.55
2023-02-22T04:13:07.296Z,6.20
2023-02-22T04:15:37.463Z,6.80
2023-02-22T04:18:06.802Z,6.72
2023-02-22T04:20:35.047Z,6.15
2023-02-22T04:23:11.946Z,6.40
2023-02-22T04:25:41.544Z,6.80
2023-02-22T04:28:12.877Z,6.40
2023-02-22T04:31:03.204Z,6.53
2023-02-22T04:33:30.626Z,6.55
2023-02-22T04:35:57.963Z,7.00
2023-02-22T04:38:26.303Z,6.60
2023-02-22T04:40:55.948Z,6.88
2023-02-22T04:43:23.433Z,6.50
2023-02-22T04:45:53.233Z,7.10
2023-02-22T04:48:20.781Z,7.40
2023-02-22T04:50:48.080Z,6.80
2023-02-22T04:53:15.637Z,6.97
2023-02-22T04:55:42.978Z,6.65
2023-02-22T04:58:10.756Z,7.20
2023-02-22T05:00:38.525Z,7.53
2023-02-22T05:03:07.028Z,7.25
2023-02-22T05:05:34.385Z,6.60
2023-02-22T05:08:01.904Z,7.13
2023-02-22T05:10:29.836Z,7.07
2023-02-22T05:12:57.151Z,6.93
2023-02-22T05:15:25.549Z,6.85
2023-02-22T05:17:53.446Z,6.55
2023-02-22T05:20:32.762Z,6.90
2023-02-22T05:23:01.776Z,6.22
2023-02-22T05:25:29.503Z,8.10
2023-02-22T05:27:59.336Z,7.43
2023-02-22T05:30:32.660Z,7.30
2023-02-22T05:33:01.041Z,7.80
2023-02-22T05:35:29.502Z,7.28
2023-02-22T05:37:57.820Z,7.95
2023-02-22T05:40:26.971Z,7.97
2023-02-22T05:42:55.189Z,7.28
2023-02-22T05:45:24.446Z,6.90
2023-02-22T05:47:52.415Z,8.23
2023-02-22T05:50:20.665Z,8.27
2023-02-22T05:52:51.625Z,7.75
2023-02-22T05:55:21.130Z,7.18
2023-02-22T05:57:48.620Z,7.20
2023-02-22T06:00:23.418Z,7.53
2023-02-22T06:03:02.837Z,7.75
2023-02-22T06:05:30.544Z,6.85
2023-02-22T06:07:58.717Z,8.15
2023-02-22T06:10:26.731Z,7.38
2023-02-22T06:12:55.321Z,7.05
2023-02-22T06:15:24.179Z,8.27
2023-02-22T06:17:52.516Z,9.18
2023-02-22T06:20:22.920Z,7.63
2023-02-22T06:22:51.204Z,7.47
2023-02-22T06:25:21.343Z,8.57
2023-02-22T06:27:51.270Z,9.23
2023-02-22T06:30:20.857Z,7.78
2023-02-22T06:32:48.368Z,8.00
2023-02-22T06:35:16.871Z,8.60
2023-02-22T06:37:44.371Z,9.40
2023-02-22T06:40:13.262Z,9.82
2023-02-22T06:42:41.104Z,9.07
2023-02-22T06:45:09.257Z,8.95
2023-02-22T06:47:41.518Z,9.05
2023-02-22T06:50:28.966Z,10.07
2023-02-22T06:52:57.163Z,9.07
2023-02-22T06:55:27.800Z,9.93
2023-02-22T06:57:55.360Z,9.60
2023-02-22T07:00:27.779Z,10.02
2023-02-22T07:02:56.133Z,10.95
2023-02-22T07:05:25.465Z,10.57
2023-02-22T07:07:54.598Z,10.20
2023-02-22T07:10:30.504Z,10.80
2023-02-22T07:12:57.843Z,11.02
2023-02-22T07:15:28.140Z,11.90
2023-02-22T07:17:56.171Z,11.95
2023-02-22T07:20:24.646Z,10.98
2023-02-22T07:22:52.406Z,12.02
2023-02-22T07:25:20.477Z,12.27
2023-02-22T07:27:48.384Z,18.17
2023-02-22T07:30:25.195Z,13.95
2023-02-22T07:32:54.984Z,15.13
2023-02-22T07:35:26.013Z,13.82
2023-02-22T07:37:55.844Z,15.10
2023-02-22T07:40:24.452Z,14.88
2023-02-22T07:42:55.645Z,13.80
2023-02-22T07:45:24.440Z,14.23
2023-02-22T07:47:51.933Z,15.60
2023-02-22T07:50:20.521Z,15.50
2023-02-22T07:52:49.038Z,14.82
2023-02-22T07:55:18.232Z,14.35
2023-02-22T07:57:49.994Z,15.23
2023-02-22T08:00:23.643Z,15.43
2023-02-22T08:02:50.940Z,15.25
2023-02-22T08:05:19.636Z,15.32
2023-02-22T08:07:47.038Z,14.18
2023-02-22T08:10:16.478Z,14.35
2023-02-22T08:12:43.781Z,14.85
2023-02-22T08:15:20.528Z,15.05
2023-02-22T08:17:47.925Z,15.05
2023-02-22T08:20:15.242Z,15.13
2023-02-22T08:22:46.441Z,15.15
2023-02-22T08:25:15.703Z,14.70
2023-02-22T08:27:44.060Z,15.60
2023-02-22T08:30:17.634Z,14.88
2023-02-22T08:32:47.071Z,16.20
2023-02-22T08:35:15.947Z,15.80
2023-02-22T08:37:44.829Z,14.20
2023-02-22T08:40:15.017Z,14.82
2023-02-22T08:42:42.324Z,14.40
2023-02-22T08:45:11.226Z,14.88
2023-02-22T08:47:40.459Z,16.17
2023-02-22T08:50:10.319Z,14.23
2023-02-22T08:52:37.621Z,15.93
2023-02-22T08:55:05.298Z,15.40
2023-02-22T08:57:32.595Z,15.18
2023-02-22T08:59:59.892Z,15.50
2023-02-22T09:02:27.202Z,15.35
2023-02-22T09:04:54.518Z,15.57
2023-02-22T09:07:21.830Z,15.93
2023-02-22T09:09:49.142Z,15.70
2023-02-22T09:12:16.505Z,16.05
2023-02-22T09:14:43.810Z,14.50
2023-02-22T09:17:11.142Z,14.25
2023-02-22T09:19:38.521Z,14.98
2023-02-22T09:22:05.890Z,15.60
2023-02-22T09:24:33.130Z,15.02
2023-02-22T09:27:01.262Z,15.88
2023-02-22T09:29:28.816Z,16.33
2023-02-22T09:31:56.988Z,16.00
2023-02-22T09:34:29.772Z,15.75
2023-02-22T09:36:58.413Z,16.65
2023-02-22T09:39:26.032Z,15.88
2023-02-22T09:42:27.834Z,17.38
2023-02-22T09:45:18.592Z,16.00
2023-02-22T09:48:08.067Z,18.92
2023-02-22T09:50:46.701Z,17.27
2023-02-22T09:53:33.480Z,15.77
2023-02-22T09:56:11.139Z,14.80
2023-02-22T09:58:46.052Z,15.95
2023-02-22T10:01:45.277Z,15.70
2023-02-22T10:04:41.476Z,15.20
2023-02-22T10:07:49.838Z,14.45
2023-02-22T10:10:23.243Z,15.57
2023-02-22T10:13:14.580Z,14.85
2023-02-22T10:16:10.976Z,13.88
2023-02-22T10:18:55.336Z,15.00
2023-02-22T10:21:31.534Z,15.10
2023-02-22T10:24:10.551Z,15.25
2023-02-22T10:26:42.876Z,14.27
2023-02-22T10:29:35.395Z,13.85
2023-02-22T10:32:06.146Z,17.17
2023-02-22T10:34:48.619Z,14.45
2023-02-22T10:37:26.785Z,16.50
2023-02-22T10:40:20.557Z,16.17
2023-02-22T10:42:47.913Z,15.55
2023-02-22T10:45:29.918Z,15.10
2023-02-22T10:47:59.867Z,16.67
2023-02-22T10:50:32.256Z,15.05
2023-02-22T10:52:59.591Z,15.32
2023-02-22T10:55:27.536Z,14.77
2023-02-22T10:58:08.496Z,14.75
2023-02-22T11:00:39.057Z,14.52
2023-02-22T11:03:20.133Z,15.13
2023-02-22T11:05:48.175Z,14.90
2023-02-22T11:08:21.543Z,17.15
2023-02-22T11:10:54.313Z,14.85
2023-02-22T11:13:29.516Z,14.32
2023-02-22T11:16:01.572Z,14.50
2023-02-22T11:18:34.283Z,15.98
2023-02-22T11:21:11.704Z,15.23
2023-02-22T11:23:44.682Z,15.40
2023-02-22T11:26:15.354Z,14.55
2023-02-22T11:28:49.842Z,14.88
2023-02-22T11:31:24.645Z,15.27
2023-02-22T11:34:00.069Z,15.27
2023-02-22T11:36:42.926Z,15.27
2023-02-22T11:41:50.447Z,14.90
2023-02-22T11:44:27.614Z,17.00
2023-02-22T11:47:07.078Z,14.75
2023-02-22T11:49:42.846Z,14.50
2023-02-22T11:52:36.928Z,14.73
2023-02-22T11:55:36.434Z,14.00
2023-02-22T11:58:20.839Z,13.70
2023-02-22T12:01:10.218Z,13.98
2023-02-22T12:04:09.585Z,13.68
2023-02-22T12:07:24.280Z,13.45
2023-02-22T12:10:18.531Z,13.30
2023-02-22T12:13:02.058Z,13.63
2023-02-22T12:15:47.035Z,13.27
2023-02-22T12:18:35.586Z,12.48
2023-02-22T12:21:11.738Z,13.98
2023-02-22T12:23:55.253Z,13.30
2023-02-22T12:26:48.580Z,12.25
2023-02-22T12:29:34.119Z,12.88
2023-02-22T12:32:32.053Z,13.80
2023-02-22T12:35:25.737Z,12.40
2023-02-22T12:38:14.400Z,12.90
2023-02-22T12:41:09.063Z,11.93
2023-02-22T12:44:14.603Z,13.38
2023-02-22T12:46:52.833Z,12.38
2023-02-22T12:49:51.833Z,13.73
2023-02-22T12:52:28.338Z,14.55
2023-02-22T12:55:26.856Z,13.15
2023-02-22T12:58:09.434Z,12.18
2023-02-22T13:00:52.792Z,13.35
2023-02-22T13:03:36.853Z,13.90
2023-02-22T13:06:46.305Z,11.65
2023-02-22T13:09:13.635Z,11.80
2023-02-22T13:12:07.376Z,11.85
2023-02-22T13:14:43.626Z,12.30
2023-02-22T13:17:52.165Z,12.32
2023-02-22T13:20:28.032Z,11.85
2023-02-22T13:23:16.201Z,12.23
2023-02-22T13:26:00.983Z,13.38
2023-02-22T13:28:34.874Z,12.35
2023-02-22T13:31:31.272Z,10.75
2023-02-22T13:34:42.609Z,11.32
2023-02-22T13:37:24.663Z,11.70
2023-02-22T13:40:15.956Z,12.00
2023-02-22T13:43:20.386Z,10.07
2023-02-22T13:46:22.234Z,10.65
2023-02-22T13:49:26.812Z,11.38
2023-02-22T13:52:14.925Z,11.35
2023-02-22T13:54:54.717Z,12.32
2023-02-22T13:58:00.022Z,10.77
2023-02-22T14:00:50.405Z,10.10
2023-02-22T14:03:43.475Z,9.95
2023-02-22T14:09:10.046Z,10.13
2023-02-22T14:11:37.301Z,10.57
2023-02-22T14:14:07.561Z,10.95
2023-02-22T14:16:36.046Z,10.82
2023-02-22T14:19:15.644Z,11.50
2023-02-22T14:22:03.360Z,10.60
2023-02-22T14:24:43.180Z,9.88
2023-02-22T14:27:11.934Z,10.30
2023-02-22T14:29:56.980Z,9.75
2023-02-22T14:32:32.757Z,10.30
2023-02-22T14:35:27.106Z,9.27
2023-02-22T14:37:59.476Z,10.13
2023-02-22T14:40:36.385Z,10.98
2023-02-22T14:43:36.910Z,12.88
2023-02-22T14:46:07.472Z,11.35
2023-02-22T14:48:45.495Z,10.73
2023-02-22T14:51:26.969Z,10.15
2023-02-22T14:54:10.679Z,10.75
2023-02-22T14:57:14.806Z,10.63
2023-02-22T14:59:57.553Z,10.85
2023-02-22T15:02:26.256Z,9.68
2023-02-22T15:04:55.817Z,11.55
2023-02-22T15:07:30.239Z,11.13
2023-02-22T15:10:28.231Z,11.30
2023-02-22T15:13:11.271Z,12.88
2023-02-22T15:15:49.770Z,10.73
2023-02-22T15:18:40.764Z,9.65
2023-02-22T15:21:16.541Z,10.15
2023-02-22T15:23:45.395Z,9.98
2023-02-22T15:26:36.358Z,11.00
2023-02-22T15:29:10.143Z,12.10
2023-02-22T15:31:40.442Z,10.98
2023-02-22T15:34:22.404Z,10.98
2023-02-22T15:36:54.727Z,11.18
2023-02-22T15:39:34.653Z,11.18
2023-02-22T15:42:21.308Z,11.80
2023-02-22T15:44:54.894Z,10.43
2023-02-22T15:47:30.209Z,9.75
2023-02-22T15:50:21.227Z,10.98
2023-02-22T15:53:23.522Z,9.75
2023-02-22T15:55:58.359Z,10.13
2023-02-22T15:58:31.358Z,10.20
2023-02-22T16:01:06.813Z,10.10
2023-02-22T16:03:44.928Z,10.85
2023-02-22T16:06:35.742Z,10.90
2023-02-22T16:09:15.370Z,9.98
2023-02-22T16:11:46.661Z,10.50
2023-02-22T16:14:36.868Z,10.15
2023-02-22T16:17:55.948Z,8.68
2023-02-22T16:20:29.603Z,9.80
2023-02-22T16:22:58.188Z,9.07
2023-02-22T16:25:36.240Z,9.48
2023-02-22T16:28:25.350Z,9.90
2023-02-22T16:30:58.413Z,8.50
2023-02-22T16:33:29.947Z,9.38
2023-02-22T16:35:57.308Z,8.38
2023-02-22T16:38:27.666Z,9.35
2023-02-22T16:40:58.346Z,8.00
2023-02-22T16:43:33.064Z,8.93
2023-02-22T16:46:04.925Z,9.40
2023-02-22T16:48:33.539Z,8.80
2023-02-22T16:51:18.007Z,8.63
2023-02-22T16:53:46.038Z,9.18
2023-02-22T16:56:16.652Z,9.15
2023-02-22T16:58:45.554Z,9.07
2023-02-22T17:01:13.125Z,8.68
2023-02-22T17:03:40.712Z,9.65
2023-02-22T17:06:10.649Z,8.52
2023-02-22T17:08:42.402Z,8.02
2023-02-22T17:11:17.925Z,8.97
2023-02-22T17:13:47.362Z,9.38
2023-02-22T17:16:17.753Z,9.07
2023-02-22T17:18:46.179Z,8.90
2023-02-22T17:21:13.495Z,8.60
2023-02-22T17:23:40.746Z,8.23
2023-02-22T17:26:08.030Z,9.07
2023-02-22T17:28:35.517Z,8.82
2023-02-22T17:31:02.854Z,8.63
2023-02-22T17:33:33.539Z,9.55
2023-02-22T17:36:02.273Z,8.55
2023-02-22T17:38:30.570Z,9.48
2023-02-22T17:40:59.466Z,8.82
2023-02-22T17:43:30.917Z,10.00
2023-02-22T17:46:08.170Z,8.93
2023-02-22T17:48:36.126Z,8.93
2023-02-22T17:51:08.682Z,8.65
2023-02-22T17:53:36.406Z,9.15
2023-02-22T17:56:10.891Z,9.38
2023-02-22T17:58:38.737Z,9.13
2023-02-22T18:01:06.266Z,9.50
2023-02-22T18:03:34.013Z,9.15
2023-02-22T18:06:01.952Z,8.93
2023-02-22T18:08:32.249Z,9.45
2023-02-22T18:11:05.136Z,9.55
2023-02-22T18:13:32.470Z,8.70
2023-02-22T18:16:00.441Z,9.25
2023-02-22T18:18:28.255Z,9.02
2023-02-22T18:20:59.927Z,9.50
2023-02-22T18:23:31.967Z,10.15
2023-02-22T18:26:10.755Z,10.68
2023-02-22T18:28:39.508Z,10.68
2023-02-22T18:31:14.911Z,10.07
2023-02-22T18:33:43.596Z,10.75
2023-02-22T18:36:14.859Z,10.27
2023-02-22T18:38:44.972Z,11.98
2023-02-22T18:41:17.508Z,10.15
2023-02-22T18:43:46.634Z,9.80
2023-02-22T18:46:18.348Z,10.00
2023-02-22T18:48:47.613Z,10.38
2023-02-22T18:51:17.514Z,11.55
2023-02-22T18:53:47.835Z,9.95
2023-02-22T18:56:22.341Z,10.70
2023-02-22T18:59:12.362Z,10.27
2023-02-22T19:01:41.222Z,11.38
2023-02-22T19:04:12.828Z,9.75
2023-02-22T19:06:41.268Z,10.98
2023-02-22T19:09:09.433Z,11.82
2023-02-22T19:11:37.393Z,11.18
2023-02-22T19:14:05.556Z,11.43
2023-02-22T19:16:33.448Z,9.70
2023-02-22T19:19:01.679Z,10.45
2023-02-22T19:21:30.926Z,10.20
2023-02-22T19:24:01.683Z,11.25
2023-02-22T19:26:29.739Z,9.82
2023-02-22T19:28:58.939Z,11.10
2023-02-22T19:31:32.179Z,10.80
2023-02-22T19:34:11.551Z,10.40
2023-02-22T19:36:40.952Z,10.23
2023-02-22T19:39:09.284Z,10.02
2023-02-22T19:41:36.705Z,10.95
2023-02-22T19:44:04.862Z,9.75
2023-02-22T19:46:32.479Z,11.25
2023-02-22T19:49:02.074Z,10.60
2023-02-22T19:51:32.802Z,10.30
2023-02-22T19:54:05.307Z,10.43
2023-02-22T19:56:35.537Z,10.05
2023-02-22T19:59:13.737Z,10.32
2023-02-22T20:01:44.698Z,9.65
2023-02-22T20:04:18.556Z,10.23
2023-02-22T20:06:47.262Z,9.13
2023-02-22T20:09:18.102Z,9.52
2023-02-22T20:11:46.453Z,10.45
2023-02-22T20:14:19.590Z,9.88
2023-02-22T20:16:47.421Z,10.75
2023-02-22T20:19:14.911Z,10.40
2023-02-22T20:21:42.378Z,10.93
2023-02-22T20:24:20.424Z,10.95
2023-02-22T20:26:48.726Z,11.55
2023-02-22T20:29:17.549Z,12.13
2023-02-22T20:31:49.910Z,12.13
2023-02-22T20:34:17.366Z,11.77
2023-02-22T20:36:45.957Z,11.25
2023-02-22T20:39:14.289Z,11.05
2023-02-22T20:41:45.044Z,11.52
2023-02-22T20:44:19.160Z,11.77
2023-02-22T20:46:49.660Z,11.25
2023-02-22T20:49:20.149Z,11.43
2023-02-22T20:51:48.370Z,11.35
2023-02-22T20:54:17.047Z,11.55
2023-02-22T20:56:48.921Z,11.30
2023-02-22T20:59:18.833Z,11.30
2023-02-22T21:01:49.549Z,11.80
2023-02-22T21:04:17.626Z,11.48
2023-02-22T21:06:46.941Z,11.88
2023-02-22T21:09:20.360Z,12.27
2023-02-22T21:11:47.719Z,12.73
2023-02-22T21:14:20.069Z,11.30
2023-02-22T21:16:49.680Z,11.05
2023-02-22T21:19:26.747Z,11.95
2023-02-22T21:21:56.142Z,12.23
2023-02-22T21:24:29.527Z,11.20
2023-02-22T21:26:59.051Z,10.93
2023-02-22T21:29:32.084Z,10.95
2023-02-22T21:32:00.107Z,10.93
2023-02-22T21:34:27.551Z,12.73
2023-02-22T21:36:55.000Z,13.30
2023-02-22T21:39:22.821Z,12.13
2023-02-22T21:41:52.019Z,12.40
2023-02-22T21:44:20.126Z,12.00
2023-02-22T21:46:53.574Z,11.68
2023-02-22T21:49:22.950Z,11.15
2023-02-22T21:51:51.836Z,11.63
2023-02-22T21:54:19.679Z,11.23
2023-02-22T21:56:48.037Z,11.38
2023-02-22T21:59:20.566Z,11.93
2023-02-22T22:01:56.365Z,11.15
2023-02-22T22:04:28.675Z,11.00
2023-02-22T22:06:58.269Z,11.10
2023-02-22T22:09:29.206Z,11.82
2023-02-22T22:11:58.551Z,11.88
2023-02-22T22:14:27.410Z,11.20
2023-02-22T22:17:00.456Z,12.07
2023-02-22T22:19:32.014Z,12.48
2023-02-22T22:21:59.376Z,12.23
2023-02-22T22:24:29.759Z,11.73
2023-02-22T22:27:03.935Z,12.70
2023-02-22T22:29:34.731Z,12.70
2023-02-22T22:32:09.765Z,11.73
2023-02-22T22:34:42.780Z,11.95
2023-02-22T22:37:10.230Z,11.48
2023-02-22T22:39:38.683Z,11.80
2023-02-22T22:42:06.035Z,12.55
2023-02-22T22:44:42.129Z,11.10
2023-02-22T22:47:12.441Z,12.32
2023-02-22T22:49:40.625Z,11.55
2023-02-22T22:52:08.567Z,11.13
2023-02-22T22:54:36.430Z,12.07
2023-02-22T22:57:04.224Z,11.38
2023-02-22T22:59:32.000Z,12.25
2023-02-22T23:01:59.613Z,13.15
2023-02-22T23:04:26.927Z,11.50
2023-02-22T23:06:57.439Z,12.45
2023-02-22T23:09:27.476Z,12.80
2023-02-22T23:12:09.233Z,12.20
2023-02-22T23:14:44.320Z,13.23
2023-02-22T23:17:15.327Z,14.47
2023-02-22T23:19:45.285Z,13.32
2023-02-22T23:22:14.597Z,12.88
2023-02-22T23:24:44.631Z,13.25
2023-02-22T23:27:12.428Z,11.93
2023-02-22T23:29:42.370Z,12.27
2023-02-22T23:32:10.426Z,12.65
2023-02-22T23:34:41.647Z,12.30
2023-02-22T23:37:10.883Z,12.73
2023-02-22T23:39:38.610Z,11.40
2023-02-22T23:42:08.990Z,11.90
2023-02-22T23:44:39.866Z,11.75
2023-02-22T23:47:12.972Z,11.35
2023-02-22T23:49:47.896Z,12.45
2023-02-22T23:52:24.212Z,12.02
2023-02-22T23:55:00.948Z,11.63
2023-02-22T23:57:32.969Z,11.73
